Fredericksburg, Texas
Current Conditions -  °F | °C
As of 2:35 AM on Friday 21 Nov 2014 (Local Time) from KT82 Reporting Station
Overcast Overcast  
Wind Chill: 61°   Ceiling: 1000
Heat Index: 61°   Visibility: 10mi
Dew Point: 58°   Wind: 3mph
Humidity: 92%   Direction: 180°S
Pressure: 30.04"   Gusts: NA
Location:  30.27°N, 98.87°W
Report Text: KT82 210835Z AUTO 18003KT 10SM BKN010 BKN014 OVC018 16/15 A3004 RMK AO2 T01600147
Loading
Personal Weather Stations






























Interactive Weather Map New forecast layout! Learn more

10-Day Weather Forecast

Advertisements
Track Severe Weather on mobile